createdAt,value
2018-03-28T00:01:40.549Z,5.75
2018-03-28T00:04:08.961Z,5.78
2018-03-28T00:06:37.428Z,5.81
2018-03-28T00:09:06.626Z,5.84
2018-03-28T00:11:35.034Z,5.78
2018-03-28T00:14:03.483Z,5.80
2018-03-28T00:16:31.917Z,5.79
2018-03-28T00:19:00.326Z,5.79
2018-03-28T00:21:28.781Z,5.80
2018-03-28T00:23:57.191Z,5.80
2018-03-28T00:26:25.603Z,5.79
2018-03-28T00:28:54.161Z,5.86
2018-03-28T00:31:22.565Z,5.85
2018-03-28T00:33:50.978Z,5.86
2018-03-28T00:36:19.438Z,5.80
2018-03-28T00:38:47.886Z,5.77
2018-03-28T00:41:16.294Z,5.74
2018-03-28T00:43:44.767Z,5.78
2018-03-28T00:46:13.178Z,5.74
2018-03-28T00:48:41.586Z,5.69
2018-03-28T00:51:21.706Z,5.75
2018-03-28T00:53:50.122Z,5.73
2018-03-28T00:56:18.548Z,5.70
2018-03-28T00:58:47.010Z,5.65
2018-03-28T01:01:15.426Z,5.60
2018-03-28T01:03:43.857Z,5.65
2018-03-28T01:06:12.327Z,5.62
2018-03-28T01:08:40.734Z,5.62
2018-03-28T01:11:09.157Z,5.60
2018-03-28T01:13:37.621Z,5.58
2018-03-28T01:16:06.031Z,5.55
2018-03-28T01:18:34.445Z,5.57
2018-03-28T01:21:02.910Z,5.50
2018-03-28T01:23:31.317Z,5.43
2018-03-28T01:25:59.742Z,5.45
2018-03-28T01:28:28.204Z,5.43
2018-03-28T01:30:56.614Z,5.42
2018-03-28T01:33:25.026Z,5.38
2018-03-28T01:35:53.477Z,5.40
2018-03-28T01:38:21.881Z,5.42
2018-03-28T01:40:50.289Z,5.39
2018-03-28T01:43:18.753Z,5.37
2018-03-28T01:45:47.157Z,5.36
2018-03-28T01:48:15.566Z,5.31
2018-03-28T01:50:44.037Z,5.38
2018-03-28T01:53:12.450Z,5.39
2018-03-28T01:55:40.857Z,5.41
2018-03-28T01:58:09.305Z,5.37
2018-03-28T02:00:37.711Z,5.41
2018-03-28T02:03:06.154Z,5.33
2018-03-28T02:05:34.617Z,5.40
2018-03-28T02:08:03.037Z,5.33
2018-03-28T02:10:31.441Z,5.34
2018-03-28T02:12:59.896Z,5.43
2018-03-28T02:15:28.306Z,5.43
2018-03-28T02:17:56.730Z,5.45
2018-03-28T02:20:25.201Z,5.43
2018-03-28T02:22:53.619Z,5.39
2018-03-28T02:25:22.025Z,5.41
2018-03-28T02:27:50.493Z,5.40
2018-03-28T02:30:18.894Z,5.46
2018-03-28T02:32:47.314Z,5.46
2018-03-28T02:35:15.793Z,5.42
2018-03-28T02:37:44.207Z,5.46
2018-03-28T02:40:12.617Z,5.48
2018-03-28T02:42:41.100Z,5.46
2018-03-28T02:45:09.521Z,5.53
2018-03-28T02:47:37.934Z,5.63
2018-03-28T02:50:06.394Z,5.65
2018-03-28T02:52:34.814Z,5.71
2018-03-28T02:55:03.222Z,5.72
2018-03-28T02:57:31.681Z,5.73
2018-03-28T03:00:00.090Z,5.73
2018-03-28T03:02:28.501Z,5.72
2018-03-28T03:04:56.962Z,5.77
2018-03-28T03:07:25.370Z,5.87
2018-03-28T03:09:53.803Z,5.85
2018-03-28T03:12:22.285Z,5.90
2018-03-28T03:14:50.693Z,5.93
2018-03-28T03:17:19.102Z,5.91
2018-03-28T03:19:47.556Z,5.98
2018-03-28T03:22:15.966Z,5.95
2018-03-28T03:24:44.378Z,5.97
2018-03-28T03:27:12.863Z,6.02
2018-03-28T03:29:41.274Z,5.98
2018-03-28T03:32:09.690Z,6.05
2018-03-28T03:34:38.160Z,6.09
2018-03-28T03:37:06.594Z,6.09
2018-03-28T03:39:35.014Z,6.10
2018-03-28T03:42:03.484Z,6.07
2018-03-28T03:44:31.894Z,6.08
2018-03-28T03:47:00.305Z,6.01
2018-03-28T03:49:28.762Z,6.06
2018-03-28T03:51:57.188Z,6.08
2018-03-28T03:54:25.597Z,6.21
2018-03-28T03:56:54.054Z,6.23
2018-03-28T03:59:22.457Z,6.20
2018-03-28T04:01:50.888Z,-146.80
2018-03-28T04:04:19.372Z,-146.80
2018-03-28T04:06:47.810Z,-146.80
2018-03-28T04:09:16.249Z,-146.80
2018-03-28T04:11:44.758Z,-146.80
2018-03-28T04:14:13.199Z,-146.80
2018-03-28T04:16:41.646Z,-146.80
2018-03-28T04:19:10.131Z,-146.80
2018-03-28T04:21:38.575Z,-146.80
2018-03-28T04:24:07.010Z,-146.80
2018-03-28T04:26:35.502Z,-146.80
2018-03-28T04:29:03.937Z,-146.80
2018-03-28T04:31:32.378Z,-146.80
2018-03-28T04:34:00.874Z,-146.80
2018-03-28T04:36:29.313Z,-146.80
2018-03-28T04:38:57.758Z,-146.80
2018-03-28T04:41:26.250Z,-146.80
2018-03-28T04:43:54.686Z,-146.80
2018-03-28T04:46:23.160Z,-146.80
2018-03-28T04:48:51.665Z,-146.80
2018-03-28T04:51:20.102Z,-146.80
2018-03-28T04:53:48.620Z,-146.80
2018-03-28T04:56:17.285Z,-146.80
2018-03-28T04:58:45.725Z,-146.80
2018-03-28T05:03:52.529Z,6.11
2018-03-28T05:06:20.939Z,6.15
2018-03-28T05:08:49.347Z,6.15
2018-03-28T05:11:17.809Z,6.11
2018-03-28T05:13:46.222Z,6.16
2018-03-28T05:16:14.629Z,6.10
2018-03-28T05:18:43.082Z,6.13
2018-03-28T05:21:11.490Z,6.14
2018-03-28T05:23:39.898Z,6.13
2018-03-28T05:26:08.354Z,6.10
2018-03-28T05:28:36.757Z,6.11
2018-03-28T05:31:05.210Z,6.10
2018-03-28T05:33:33.691Z,6.12
2018-03-28T05:36:02.166Z,6.12
2018-03-28T05:38:30.569Z,6.06
2018-03-28T05:40:59.030Z,6.06
2018-03-28T05:43:27.441Z,6.00
2018-03-28T05:45:55.846Z,5.96
2018-03-28T05:48:24.294Z,5.99
2018-03-28T05:50:52.701Z,6.03
2018-03-28T05:53:21.114Z,6.04
2018-03-28T05:55:49.606Z,6.04
2018-03-28T05:58:18.277Z,5.97
2018-03-28T06:00:46.687Z,5.98
2018-03-28T06:03:15.156Z,6.02
2018-03-28T06:05:43.578Z,6.03
2018-03-28T06:08:11.978Z,6.05
2018-03-28T06:10:40.525Z,6.12
2018-03-28T06:13:08.941Z,6.07
2018-03-28T06:15:37.357Z,6.14
2018-03-28T06:18:05.809Z,6.15
2018-03-28T06:20:34.215Z,6.19
2018-03-28T06:23:02.626Z,6.14
2018-03-28T06:25:31.074Z,6.14
2018-03-28T06:27:59.495Z,6.19
2018-03-28T06:30:27.909Z,6.18
2018-03-28T06:32:56.373Z,6.20
2018-03-28T06:35:24.777Z,6.16
2018-03-28T06:37:53.183Z,6.19
2018-03-28T06:40:21.644Z,6.16
2018-03-28T06:42:50.049Z,6.19
2018-03-28T06:45:18.458Z,6.19
2018-03-28T06:47:46.929Z,6.16
2018-03-28T06:50:15.334Z,6.23
2018-03-28T06:52:43.754Z,6.26
2018-03-28T06:55:12.222Z,6.27
2018-03-28T06:57:40.638Z,6.24
2018-03-28T07:00:09.045Z,6.29
2018-03-28T07:02:37.493Z,6.27
2018-03-28T07:05:05.903Z,6.30
2018-03-28T07:07:34.377Z,6.30
2018-03-28T07:10:02.814Z,6.33
2018-03-28T07:12:31.217Z,6.29
2018-03-28T07:14:59.654Z,6.38
2018-03-28T07:17:28.114Z,6.36
2018-03-28T07:19:56.530Z,6.35
2018-03-28T07:22:24.947Z,6.31
2018-03-28T07:24:53.435Z,6.34
2018-03-28T07:27:21.861Z,6.36
2018-03-28T07:29:50.273Z,6.38
2018-03-28T07:32:18.986Z,6.32
2018-03-28T07:34:47.435Z,6.38
2018-03-28T07:37:15.847Z,6.41
2018-03-28T07:39:44.299Z,6.44
2018-03-28T07:42:12.714Z,6.40
2018-03-28T07:44:41.122Z,6.39
2018-03-28T07:47:09.572Z,6.43
2018-03-28T07:49:37.978Z,6.46
2018-03-28T07:52:06.397Z,6.50
2018-03-28T07:54:34.874Z,6.50
2018-03-28T07:57:03.290Z,6.51
2018-03-28T07:59:31.702Z,6.50
2018-03-28T08:02:00.164Z,6.51
2018-03-28T08:04:28.578Z,6.50
2018-03-28T08:06:56.986Z,6.53
2018-03-28T08:09:25.449Z,6.45
2018-03-28T08:11:53.870Z,6.48
2018-03-28T08:14:22.278Z,6.49
2018-03-28T08:16:50.761Z,6.52
2018-03-28T08:19:19.173Z,6.58
2018-03-28T08:21:47.595Z,6.55
2018-03-28T08:24:16.060Z,6.57
2018-03-28T08:26:44.469Z,6.53
2018-03-28T08:29:12.876Z,6.60
2018-03-28T08:31:41.338Z,6.60
2018-03-28T08:34:09.754Z,6.62
2018-03-28T08:36:38.162Z,6.66
2018-03-28T08:39:06.653Z,6.65
2018-03-28T08:41:35.066Z,6.69
2018-03-28T08:44:03.494Z,6.62
2018-03-28T08:46:31.961Z,6.69
2018-03-28T08:49:00.408Z,6.70
2018-03-28T08:51:28.818Z,6.77
2018-03-28T08:53:57.277Z,6.86
2018-03-28T08:56:25.702Z,6.92
2018-03-28T08:58:54.134Z,7.00
2018-03-28T09:01:22.617Z,7.07
2018-03-28T09:03:51.030Z,7.07
2018-03-28T09:06:19.439Z,7.05
2018-03-28T09:08:47.945Z,7.05
2018-03-28T09:11:16.360Z,7.04
2018-03-28T09:13:44.761Z,7.03
2018-03-28T09:16:13.222Z,7.06
2018-03-28T09:18:41.641Z,7.04
2018-03-28T09:21:10.054Z,7.12
2018-03-28T09:23:38.525Z,7.09
2018-03-28T09:26:06.961Z,7.03
2018-03-28T09:28:35.379Z,7.07
2018-03-28T09:31:03.857Z,7.07
2018-03-28T09:33:32.265Z,7.10
2018-03-28T09:36:00.676Z,7.10
2018-03-28T09:38:29.134Z,7.13
2018-03-28T09:40:57.539Z,7.12
2018-03-28T09:43:25.958Z,7.11
2018-03-28T09:45:54.502Z,7.12
2018-03-28T09:48:22.919Z,7.21
2018-03-28T09:50:51.356Z,7.17
2018-03-28T09:53:19.815Z,7.17
2018-03-28T09:55:48.222Z,7.24
2018-03-28T09:58:16.640Z,7.22
2018-03-28T10:00:45.999Z,7.30
2018-03-28T10:03:14.423Z,7.37
2018-03-28T10:05:42.854Z,7.37
2018-03-28T10:08:11.331Z,7.40
2018-03-28T10:10:39.739Z,7.38
2018-03-28T10:13:08.156Z,7.48
2018-03-28T10:15:36.624Z,7.47
2018-03-28T10:18:05.109Z,7.47
2018-03-28T10:20:33.518Z,7.52
2018-03-28T10:23:02.035Z,7.40
2018-03-28T10:25:30.522Z,7.39
2018-03-28T10:27:59.022Z,7.48
2018-03-28T10:30:27.486Z,7.41
2018-03-28T10:32:55.937Z,7.40
2018-03-28T10:35:24.376Z,7.42
2018-03-28T10:37:52.837Z,7.46
2018-03-28T10:40:21.298Z,7.46
2018-03-28T10:42:49.761Z,7.48
2018-03-28T10:45:18.238Z,7.55
2018-03-28T10:47:46.694Z,7.57
2018-03-28T10:50:15.101Z,7.60
2018-03-28T10:52:43.590Z,7.64
2018-03-28T10:55:12.001Z,7.66
2018-03-28T10:57:40.427Z,7.64
2018-03-28T11:00:08.905Z,7.63
2018-03-28T11:02:37.309Z,7.64
2018-03-28T11:05:05.729Z,7.53
2018-03-28T11:07:34.195Z,7.53
2018-03-28T11:10:02.608Z,7.56
2018-03-28T11:12:31.027Z,7.63
2018-03-28T11:14:59.518Z,7.66
2018-03-28T11:17:27.940Z,7.64
2018-03-28T11:19:56.369Z,7.70
2018-03-28T11:22:24.823Z,7.67
2018-03-28T11:24:53.230Z,7.72
2018-03-28T11:27:21.643Z,7.74
2018-03-28T11:29:50.113Z,7.70
2018-03-28T11:32:18.532Z,7.69
2018-03-28T11:34:46.949Z,7.72
2018-03-28T11:37:15.418Z,7.66
2018-03-28T11:39:43.830Z,7.52
2018-03-28T11:42:12.242Z,7.56
2018-03-28T11:44:40.693Z,7.60
2018-03-28T11:47:09.114Z,7.57
2018-03-28T11:49:37.521Z,7.57
2018-03-28T11:52:05.977Z,7.56
2018-03-28T11:54:34.398Z,7.57
2018-03-28T11:57:02.809Z,7.62
2018-03-28T11:59:31.262Z,7.61
2018-03-28T12:01:59.674Z,7.54
2018-03-28T12:04:28.083Z,7.57
2018-03-28T12:06:56.550Z,7.57
2018-03-28T12:09:24.965Z,7.63
2018-03-28T12:11:53.405Z,7.73
2018-03-28T12:14:21.883Z,7.84
2018-03-28T12:16:50.301Z,7.92
2018-03-28T12:19:18.710Z,8.06
2018-03-28T12:21:47.166Z,8.16
2018-03-28T12:24:15.578Z,8.25
2018-03-28T12:26:43.981Z,8.37
2018-03-28T12:29:12.622Z,8.50
2018-03-28T12:31:41.033Z,8.64
2018-03-28T12:34:09.444Z,8.65
2018-03-28T12:36:37.897Z,8.70
2018-03-28T12:39:06.360Z,8.73
2018-03-28T12:41:34.777Z,8.76
2018-03-28T12:44:03.225Z,8.88
2018-03-28T12:46:31.634Z,8.93
2018-03-28T12:49:00.064Z,9.02
2018-03-28T12:51:28.529Z,9.11
2018-03-28T12:53:56.938Z,9.17
2018-03-28T12:56:25.348Z,9.22
2018-03-28T12:58:53.805Z,9.28
2018-03-28T13:01:22.276Z,9.28
2018-03-28T13:03:50.670Z,9.25
2018-03-28T13:06:19.148Z,9.25
2018-03-28T13:08:47.558Z,9.19
2018-03-28T13:11:15.977Z,9.27
2018-03-28T13:13:44.434Z,9.25
2018-03-28T13:16:12.842Z,9.24
2018-03-28T13:18:41.250Z,9.23
2018-03-28T13:21:09.698Z,9.25
2018-03-28T13:23:38.109Z,9.28
2018-03-28T13:26:06.518Z,9.22
2018-03-28T13:28:34.981Z,9.23
2018-03-28T13:31:03.394Z,9.23
2018-03-28T13:33:31.802Z,9.17
2018-03-28T13:36:00.258Z,9.04
2018-03-28T13:38:28.680Z,8.98
2018-03-28T13:40:57.090Z,9.02
2018-03-28T13:43:25.557Z,9.10
2018-03-28T13:45:53.971Z,9.15
2018-03-28T13:48:22.382Z,9.07
2018-03-28T13:50:50.926Z,9.00
2018-03-28T13:53:19.337Z,8.96
2018-03-28T13:55:47.746Z,8.97
2018-03-28T13:58:16.217Z,8.89
2018-03-28T14:00:44.626Z,8.81
2018-03-28T14:03:13.038Z,8.80
2018-03-28T14:05:41.531Z,8.81
2018-03-28T14:08:09.927Z,8.77
2018-03-28T14:10:38.334Z,8.68
2018-03-28T14:13:06.782Z,8.64
2018-03-28T14:15:35.196Z,8.58
2018-03-28T14:18:03.614Z,8.59
2018-03-28T14:20:32.067Z,8.61
2018-03-28T14:23:00.478Z,8.61
2018-03-28T14:25:28.895Z,8.55
2018-03-28T14:27:57.348Z,8.56
2018-03-28T14:30:25.792Z,8.44
2018-03-28T14:32:54.235Z,8.38
2018-03-28T14:35:22.715Z,8.34
2018-03-28T14:37:51.151Z,8.35
2018-03-28T14:40:19.566Z,8.34
2018-03-28T14:42:54.590Z,8.35
2018-03-28T14:45:16.470Z,8.23
2018-03-28T14:47:44.914Z,8.11
2018-03-28T14:50:13.372Z,8.04
2018-03-28T14:52:41.783Z,8.01
2018-03-28T14:55:10.194Z,7.90
2018-03-28T14:57:38.658Z,7.79
2018-03-28T15:00:07.156Z,7.80
2018-03-28T15:02:35.530Z,7.66
2018-03-28T15:05:04.010Z,7.54
2018-03-28T15:07:32.421Z,7.48
2018-03-28T15:10:00.839Z,7.44
2018-03-28T15:12:29.304Z,7.37
2018-03-28T15:14:57.737Z,7.42
2018-03-28T15:17:26.147Z,7.40
2018-03-28T15:19:54.601Z,7.32
2018-03-28T15:22:23.006Z,7.29
2018-03-28T15:24:51.434Z,7.27
2018-03-28T15:27:19.908Z,7.24
2018-03-28T15:29:48.471Z,7.23
2018-03-28T15:32:16.877Z,7.24
2018-03-28T15:34:45.351Z,7.26
2018-03-28T15:37:13.779Z,7.18
2018-03-28T15:39:42.188Z,7.14
2018-03-28T15:42:10.639Z,7.17
2018-03-28T15:44:39.062Z,7.17
2018-03-28T15:47:07.469Z,7.14
2018-03-28T15:49:35.931Z,7.12
2018-03-28T15:52:04.381Z,7.09
2018-03-28T15:54:32.793Z,7.04
2018-03-28T15:57:01.243Z,7.02
2018-03-28T15:59:34.526Z,6.94
2018-03-28T16:02:02.982Z,6.94
2018-03-28T16:04:31.401Z,6.89
2018-03-28T16:06:59.829Z,6.85
2018-03-28T16:09:28.298Z,6.83
2018-03-28T16:11:56.733Z,6.77
2018-03-28T16:14:25.153Z,6.75
2018-03-28T16:16:53.618Z,6.70
2018-03-28T16:19:22.037Z,6.67
2018-03-28T16:21:50.442Z,6.64
2018-03-28T16:24:18.922Z,6.60
2018-03-28T16:26:47.339Z,6.52
2018-03-28T16:29:15.770Z,6.50
2018-03-28T16:31:44.239Z,6.45
2018-03-28T16:34:12.654Z,6.39
2018-03-28T16:36:41.077Z,6.35
2018-03-28T16:39:09.542Z,6.37
2018-03-28T16:41:37.964Z,6.39
2018-03-28T16:44:06.406Z,6.36
2018-03-28T16:46:34.877Z,6.37
2018-03-28T16:49:03.293Z,6.31
2018-03-28T16:51:31.712Z,6.30
2018-03-28T16:54:00.171Z,6.28
2018-03-28T16:56:28.579Z,6.24
2018-03-28T16:58:56.982Z,6.24
2018-03-28T17:01:25.448Z,6.23
2018-03-28T17:03:53.853Z,6.25
2018-03-28T17:06:22.262Z,6.23
2018-03-28T17:08:50.772Z,6.17
2018-03-28T17:11:19.182Z,6.18
2018-03-28T17:13:47.626Z,6.12
2018-03-28T17:16:16.076Z,6.11
2018-03-28T17:18:44.498Z,6.06
2018-03-28T17:21:12.921Z,6.00
2018-03-28T17:23:41.374Z,6.03
2018-03-28T17:26:09.789Z,6.02
2018-03-28T17:28:38.202Z,6.00
2018-03-28T17:31:06.658Z,5.99
2018-03-28T17:33:35.073Z,5.97
2018-03-28T17:36:03.493Z,5.98
2018-03-28T17:38:31.961Z,5.97
2018-03-28T17:41:00.373Z,5.96
2018-03-28T17:43:28.786Z,5.98
2018-03-28T17:45:57.270Z,6.04
2018-03-28T17:48:25.676Z,6.07
2018-03-28T17:50:54.097Z,6.09
2018-03-28T17:53:22.561Z,6.16
2018-03-28T17:55:50.993Z,6.16
2018-03-28T17:58:19.403Z,6.15
2018-03-28T18:00:47.858Z,6.14
2018-03-28T18:03:16.275Z,6.10
2018-03-28T18:05:44.707Z,6.14
2018-03-28T18:08:13.165Z,6.10
2018-03-28T18:10:41.582Z,6.15
2018-03-28T18:13:09.994Z,6.12
2018-03-28T18:15:38.469Z,6.10
2018-03-28T18:18:06.883Z,6.08
2018-03-28T18:20:35.302Z,6.03
2018-03-28T18:23:03.782Z,6.06
2018-03-28T18:25:32.194Z,6.03
2018-03-28T18:28:00.601Z,5.98
2018-03-28T18:30:29.051Z,5.95
2018-03-28T18:32:57.490Z,5.93
2018-03-28T18:35:25.909Z,5.88
2018-03-28T18:37:54.359Z,5.89
2018-03-28T18:40:22.769Z,5.91
2018-03-28T18:42:51.481Z,5.91
2018-03-28T18:45:19.956Z,5.91
2018-03-28T18:47:48.378Z,5.94
2018-03-28T18:50:16.791Z,5.92
2018-03-28T18:52:45.242Z,5.88
2018-03-28T18:55:13.658Z,5.91
2018-03-28T18:57:42.065Z,5.85
2018-03-28T19:00:10.517Z,5.83
2018-03-28T19:02:38.933Z,5.80
2018-03-28T19:05:07.345Z,5.88
2018-03-28T19:07:35.831Z,5.86
2018-03-28T19:10:04.250Z,5.87
2018-03-28T19:12:32.657Z,5.89
2018-03-28T19:15:01.130Z,5.88
2018-03-28T19:17:29.538Z,5.91
2018-03-28T19:19:57.952Z,5.96
2018-03-28T19:22:26.405Z,5.93
2018-03-28T19:24:54.810Z,5.99
2018-03-28T19:27:23.292Z,6.02
2018-03-28T19:29:51.725Z,6.07
2018-03-28T19:32:20.130Z,6.05
2018-03-28T19:34:48.539Z,6.12
2018-03-28T19:37:17.010Z,6.15
2018-03-28T19:39:45.413Z,6.14
2018-03-28T19:42:13.830Z,6.14
2018-03-28T19:44:42.297Z,6.09
2018-03-28T19:47:10.713Z,6.13
2018-03-28T19:49:39.130Z,6.11
2018-03-28T19:52:07.596Z,6.11
2018-03-28T19:54:36.007Z,6.07
2018-03-28T19:57:04.420Z,6.11
2018-03-28T19:59:32.890Z,6.08
2018-03-28T20:02:01.309Z,6.13
2018-03-28T20:04:29.730Z,6.09
2018-03-28T20:06:58.196Z,6.08
2018-03-28T20:09:26.614Z,5.95
2018-03-28T20:11:55.038Z,5.95
2018-03-28T20:14:23.513Z,5.95
2018-03-28T20:16:51.921Z,5.99
2018-03-28T20:19:20.333Z,5.97
2018-03-28T20:21:48.798Z,5.95
2018-03-28T20:24:17.209Z,5.95
2018-03-28T20:26:45.619Z,5.96
2018-03-28T20:29:14.075Z,5.99
2018-03-28T20:31:42.481Z,5.96
2018-03-28T20:34:10.886Z,5.95
2018-03-28T20:36:39.357Z,5.93
2018-03-28T20:39:07.789Z,5.99
2018-03-28T20:41:36.210Z,5.93
2018-03-28T20:44:04.878Z,5.86
2018-03-28T20:46:33.286Z,5.84
2018-03-28T20:49:01.706Z,5.85
2018-03-28T20:51:30.167Z,5.85
2018-03-28T20:53:58.591Z,5.85
2018-03-28T20:56:27.005Z,5.83
2018-03-28T20:58:55.474Z,5.85
2018-03-28T21:01:23.902Z,5.88
2018-03-28T21:03:52.330Z,5.84
2018-03-28T21:06:20.789Z,5.89
2018-03-28T21:08:49.214Z,5.96
2018-03-28T21:11:17.633Z,5.96
2018-03-28T21:13:46.086Z,6.03
2018-03-28T21:16:14.522Z,6.10
2018-03-28T21:18:42.929Z,6.14
2018-03-28T21:21:11.394Z,6.19
2018-03-28T21:23:39.805Z,6.27
2018-03-28T21:26:08.247Z,6.28
2018-03-28T21:28:36.708Z,6.36
2018-03-28T21:31:05.149Z,6.41
2018-03-28T21:33:33.565Z,6.49
2018-03-28T21:36:02.022Z,6.48
2018-03-28T21:38:30.431Z,6.57
2018-03-28T21:40:58.849Z,6.63
2018-03-28T21:43:27.309Z,6.71
2018-03-28T21:45:55.717Z,6.65
2018-03-28T21:48:24.125Z,6.71
2018-03-28T21:50:52.604Z,6.81
2018-03-28T21:53:21.014Z,6.89
2018-03-28T21:55:49.425Z,6.94
2018-03-28T21:58:17.877Z,7.01
2018-03-28T22:00:46.285Z,6.99
2018-03-28T22:03:14.698Z,6.93
2018-03-28T22:05:43.333Z,6.97
2018-03-28T22:08:11.744Z,7.00
2018-03-28T22:10:40.154Z,7.07
2018-03-28T22:13:08.609Z,7.14
2018-03-28T22:15:37.026Z,7.13
2018-03-28T22:18:05.462Z,7.15
2018-03-28T22:20:33.938Z,7.26
2018-03-28T22:23:02.357Z,7.29
2018-03-28T22:25:30.770Z,7.39
2018-03-28T22:27:59.225Z,7.44
2018-03-28T22:30:27.640Z,7.47
2018-03-28T22:32:56.050Z,7.48
2018-03-28T22:35:24.522Z,7.50
2018-03-28T22:37:52.922Z,7.54
2018-03-28T22:40:21.335Z,7.56
2018-03-28T22:42:49.794Z,7.62
2018-03-28T22:45:18.201Z,7.66
2018-03-28T22:47:46.614Z,7.80
2018-03-28T22:50:15.082Z,7.60
2018-03-28T22:52:43.498Z,7.59
2018-03-28T22:55:11.917Z,7.59
2018-03-28T22:57:40.369Z,7.53
2018-03-28T23:00:08.832Z,7.47
2018-03-28T23:02:37.241Z,7.41
2018-03-28T23:05:05.703Z,7.36
2018-03-28T23:07:34.101Z,7.25
2018-03-28T23:10:02.503Z,7.17
2018-03-28T23:12:30.970Z,7.14
2018-03-28T23:14:59.389Z,7.05
2018-03-28T23:17:27.834Z,6.99
2018-03-28T23:19:56.302Z,6.95
2018-03-28T23:22:36.434Z,6.84
2018-03-28T23:25:04.955Z,6.70
2018-03-28T23:27:33.385Z,6.49
2018-03-28T23:30:01.814Z,6.38
2018-03-28T23:32:30.282Z,6.32
2018-03-28T23:34:58.698Z,6.28
2018-03-28T23:37:27.118Z,6.27
2018-03-28T23:39:55.585Z,6.21
2018-03-28T23:42:24.030Z,6.17
2018-03-28T23:44:52.430Z,6.17
2018-03-28T23:47:20.885Z,6.17
2018-03-28T23:49:49.278Z,6.10
2018-03-28T23:52:17.686Z,6.00
2018-03-28T23:54:46.138Z,5.85
2018-03-28T23:57:14.534Z,5.86
2018-03-28T23:59:42.939Z,5.81
